Aparecida do Rio Negro, Brazil
Current Conditions -  °F | °C
As of 5:00 PM on Friday 28 Nov 2014 (Local Time) from SBPJ Reporting Station
Scattered Clouds Scattered Clouds  
Wind Chill: 86°   Ceiling: Unl
Heat Index: 93°   Visibility: 6mi
Dew Point: 73°   Wind: 6mph
Humidity: 66%   Direction: 180°S
Pressure: 29.85"   Gusts: NA
Location:  9.95°S, 47.97°W
Report Text: SBPJ 282000Z 18005KT 9999 SCT025 30/23 Q1011
Loading
Personal Weather Stations






























Interactive Weather Map New forecast layout! Learn more

10-Day Weather Forecast

Advertisements
Track Severe Weather on mobile